Terminal Aerodrome Forecast
Issued by NWS Wilmington, OH

Current Version | Previous Version | Graphics & Text | Print | Product List | Glossary On
Versions: 1 2 3 4 5 6 7 8 9 10 11 12 13 14 15 16 17 18 19 20 21 22 23
000
FTUS41 KILN 010800 AAA
TAFILN
TAF AMD
KILN 010829Z 0108/0206 02005KT 4SM BR SCT015
     FM011000 04002KT 4SM BR OVC012
      TEMPO 0111/0112 2SM BR OVC008
     FM011300 05004KT P6SM SCT025
     FM012300 11004KT P6SM SKC=

USA.gov is the U.S. government's official web portal to all federal, state and local government web resources and services.